WEATHER DATA

YESTERDAY
Time Temp. Dewp. Hum. Bar. 1h Prec. 24h Prec.
00:06 17.9 14.6 81 1021.1 0.0000 0.0000
00:15 17.8 14.5 81 1021.1 0.0000 0.0000
00:26 17.8 14.7 82 1021.1 0.0000 0.0000
00:36 17.7 14.4 81 1021.1 0.0000 0.0000
00:46 17.7 14.4 81 1021.1 0.0000 0.0000
00:56 17.8 14.1 79 1021.2 0.0000 0.0000
01:06 18.1 14 77 1021.1 0.0000 0.0000
01:16 18.4 13.9 75 1021.1 0.0000 0.0000
01:26 18.6 13.9 74 1021.1 0.0000 0.0000
01:37 18.8 13.9 73 1021.1 0.0000 0.0000
01:46 18.8 13.9 73 1020.9 0.0000 0.0000
01:56 18.8 13.9 73 1020.9 0.0000 0.0000
02:07 18.7 13.8 73 1021.1 0.0000 0.0000
02:17 18.7 13.8 73 1020.9 0.0000 0.0000
02:26 18.7 13.8 73 1020.9 0.0000 0.0000
02:36 18.6 13.9 74 1020.8 0.0000 0.0000
02:47 18.4 13.9 75 1020.8 0.0000 0.0000
02:57 18.1 13.8 76 1020.6 0.0000 0.0000
03:07 18 13.9 77 1020.6 0.0000 0.0000
03:17 17.9 13.8 77 1020.5 0.0000 0.0000
03:27 18 13.5 75 1020.5 0.0000 0.0000
03:37 18 13.5 75 1020.5 0.0000 0.0000
03:47 18.1 13.4 74 1020.4 0.0000 0.0000
03:58 18.2 13.5 74 1020.4 0.0000 0.0000
04:07 18.3 13.6 74 1020.4 0.0000 0.0000
04:17 18.3 13.6 74 1020.4 0.0000 0.0000
04:28 18.2 13.7 75 1020.4 0.0000 0.0000
04:38 18.1 13.6 75 1020.4 0.0000 0.0000
04:47 18.1 13.6 75 1020.4 0.0000 0.0000
04:57 18 13.5 75 1020.5 0.0000 0.0000
05:08 17.9 13.4 75 1020.5 0.0000 0.0000
05:18 17.8 13.1 74 1020.5 0.0000 0.0000
05:32 17.8 12.5 71 1020.4 0.0000 0.0000
05:43 17.7 12.6 72 1020.5 0.0000 0.0000
05:53 17.5 12.4 72 1020.5 0.0000 0.0000
06:03 17.4 12.3 72 1020.4 0.0000 0.0000
06:13 17.4 12.5 73 1020.4 0.0000 0.0000
06:23 17.3 12.8 75 1020.4 0.0000 0.0000
06:33 17.3 13 76 1020.4 0.0000 0.0000
06:43 17.3 13.2 77 1020.5 0.0000 0.0000
06:54 17.3 13.2 77 1020.6 0.0000 0.0000
07:03 17.4 13.3 77 1020.6 0.0000 0.0000
07:13 17.4 13.3 77 1020.7 0.0000 0.0000
07:24 17.5 13.4 77 1020.7 0.0000 0.0000
07:34 17.5 13.4 77 1020.8 0.0000 0.0000
07:43 17.6 12.9 74 1020.7 0.0000 0.0000
07:53 17.6 12.1 70 1020.8 0.0000 0.0000
08:04 17.7 11.9 69 1020.8 0.0000 0.0000
08:14 17.8 11.6 67 1021.1 0.0000 0.0000
08:24 17.9 11.9 68 1021.1 0.0000 0.0000
08:34 18 11.8 67 1021.1 0.0000 0.0000
08:44 18.2 12 67 1021.1 0.0000 0.0000
08:54 18.5 11.6 64 1021.2 0.0000 0.0000
09:04 19.6 11.4 59 1021.3 0.0000 0.0000
09:14 20.2 12.2 60 1021.4 0.2405 0.2000
09:24 20.6 11.8 57 1021.4 0.2405 0.2000
09:34 20.7 13.2 62 1021.5 0.2405 0.2000
09:45 20.9 12.9 60 1021.5 0.2405 0.2000
09:54 21.2 13.1 60 1021.6 0.2405 0.2000
10:04 21.3 13.7 62 1021.6 0.0000 0.2000
10:14 21.2 14.6 66 1021.8 0.0000 0.2000
10:25 21.3 15.2 68 1021.9 0.0000 0.2000
10:35 21.5 15.1 67 1021.9 0.0000 0.2000
10:44 21.7 15.8 69 1022 0.0000 0.2000
10:55 21.7 16 70 1022 0.0000 0.2000
11:05 21.6 13 58 1022 0.0000 0.2000
11:15 21.5 14.6 65 1022 0.0000 0.2000
11:25 21.7 14.6 64 1022.1 0.0000 0.2000
11:35 21.7 14.6 64 1022.1 0.0000 0.2000
11:45 21.7 14.8 65 1022.1 0.0000 0.2000
11:55 22.1 15.2 65 1022.1 0.0000 0.2000
12:06 22.3 14.7 62 1022 0.0000 0.2000
12:15 22.6 14.2 59 1022 0.0000 0.2000
12:25 22.9 15.2 62 1021.9 0.0000 0.2000
12:35 23.3 15.1 60 1022 0.0000 0.2000
12:46 23.1 15.2 61 1022 0.0000 0.2000
12:56 23.2 16.3 65 1021.9 0.0000 0.2000
13:05 23.5 15.8 62 1021.9 0.0000 0.2000
13:16 23.7 15.7 61 1021.8 0.0000 0.2000
13:26 23.8 14.8 57 1021.6 0.0000 0.2000
13:36 23.4 14.1 56 1021.5 0.0000 0.2000
13:46 23.6 14.3 56 1021.4 0.0000 0.2000
13:56 23.5 14.2 56 1021.3 0.0000 0.2000
14:06 23.7 14.4 56 1021.4 0.0000 0.2000
14:16 23.9 15.4 59 1021.3 0.0000 0.2000
14:26 23.9 15.1 58 1021.2 0.0000 0.2000
14:36 24.1 15.9 60 1021.2 0.0000 0.2000
14:46 24 15.8 60 1021.1 0.0000 0.2000
14:56 24.2 16.2 61 1021.1 0.0000 0.2000
15:07 24.3 16 60 1020.9 0.0000 0.2000
15:16 24.1 16.1 61 1020.8 0.0000 0.2000
15:26 23.9 15.4 59 1020.7 0.0000 0.2000
15:37 24 16 61 1020.6 0.0000 0.2000
15:47 23.9 16.4 63 1020.6 0.0000 0.2000
15:56 23.8 16.1 62 1020.6 0.0000 0.2000
16:06 23.7 15.7 61 1020.5 0.0000 0.2000
16:17 23.6 16.1 63 1020.5 0.0000 0.2000
16:27 23.6 16.4 64 1020.4 0.0000 0.2000
16:36 23.5 16.1 63 1020.4 0.0000 0.2000
16:47 23.4 16.5 65 1020.3 0.0000 0.2000
16:57 23.4 16.5 65 1020.3 0.0000 0.2000
17:07 23.2 16.5 66 1020.3 0.0000 0.2000
17:17 23.1 16.4 66 1020.1 0.0000 0.2000
17:27 23.2 16.5 66 1020.1 0.0000 0.2000
17:37 22.9 16.5 67 1020 0.0000 0.2000
17:47 22.6 16.4 68 1020 0.0000 0.2000
17:58 22.4 16.2 68 1019.9 0.0000 0.2000
18:07 22 16.1 69 1019.8 0.0000 0.2000
18:17 21.8 15.9 69 1019.7 0.0000 0.2000
18:27 21.4 15.9 71 1019.7 0.0000 0.2000
18:38 21.1 15.4 70 1019.7 0.0000 0.2000
18:48 20.7 15.5 72 1019.7 0.0000 0.2000
18:57 20.2 15.2 73 1019.6 0.0000 0.2000
19:08 19.7 15.1 75 1019.6 0.1202 0.4000
19:18 19.3 15 76 1019.6 0.1202 0.4000
19:28 18.9 14.8 77 1019.6 0.1202 0.4000
19:38 18.6 14.7 78 1019.6 0.1202 0.4000
19:48 18.3 14.6 79 1019.5 0.1202 0.4000
19:58 18.1 14.8 81 1019.3 0.0000 0.4000
20:19 17.5 14.6 83 1019.1 0.0000 0.4000
20:28 17.4 14.7 84 1019 0.0000 0.4000
20:43 17.2 14.7 85 1019.1 0.0000 0.4000
20:54 17.1 14.6 85 1019 0.0000 0.4000
21:04 16.9 14.7 87 1018.9 0.0000 0.4000
21:13 16.7 14.9 89 1018.8 0.0000 0.4000
21:24 16.5 14.9 90 1018.8 0.0000 0.4000
21:34 16.3 15 92 1018.8 0.0000 0.4000
21:44 16.2 14.9 92 1018.8 0.0000 0.4000
21:53 16.2 14.9 92 1018.6 0.0000 0.4000
22:04 16.1 14.8 92 1018.5 0.0000 0.4000
22:14 16 14.7 92 1018.5 0.0000 0.4000
22:24 16 14.7 92 1018.5 0.0000 0.4000
22:34 15.9 14.6 92 1018.3 0.0000 0.4000
22:44 15.9 14.6 92 1018.2 0.0000 0.4000
22:54 15.9 14.6 92 1018.1 0.0000 0.4000
23:04 15.7 14.4 92 1018 0.0000 0.4000
23:15 15.7 14.4 92 1018 0.0000 0.4000
23:24 15.6 14.5 93 1017.8 0.0000 0.4000
23:34 15.4 14.4 94 1017.6 0.0000 0.4000
23:45 15.3 14.5 95 1017.5 0.0000 0.4000
23:55 15.2 14.6 96 1017.3 0.0000 0.4000

DAY STATISTIC

2018-09-23
TEMPERATURE
AVERAGE
19.7
HIGH
24.3
15:07
LOW
15.2
23:55
PRESSURE
AVERAGE
1020.5
HIGH
1022.1
11:25
LOW
1017.3
23:55
DEWPOINT
AVERAGE
14.4
HIGH
16.5
16:47
LOW
11.4
09:04
HUMIDITY
AVERAGE
72
HIGH
96
23:55
LOW
56
13:36
PRECIPITATION
RAIN HOUR
0.2
RAIN DAY
0.4
TEMPERATURE (°C)
LOW
15.2
HIGH
24.3
AVERAGE
19.7
PRESSURE (hpa)
LOW
1017.3
HIGH
1022.1
AVERAGE
1020.5
DEVICE